sensor_id;sensor_type;location;lat;lon;timestamp;pressure;altitude;pressure_sealevel;temperature;humidity
50380;BME280;37474;59.468;18.040;2023-02-13T00:01:45;102197.84;;;1.19;100.00
50380;BME280;37474;59.468;18.040;2023-02-13T00:04:15;102196.88;;;1.09;100.00
50380;BME280;37474;59.468;18.040;2023-02-13T00:06:44;102200.00;;;0.84;100.00
50380;BME280;37474;59.468;18.040;2023-02-13T00:09:15;102203.44;;;0.89;100.00
50380;BME280;37474;59.468;18.040;2023-02-13T00:11:44;102198.38;;;0.93;100.00
50380;BME280;37474;59.468;18.040;2023-02-13T00:14:12;102196.00;;;1.09;100.00
50380;BME280;37474;59.468;18.040;2023-02-13T00:16:42;102211.13;;;0.92;100.00
50380;BME280;37474;59.468;18.040;2023-02-13T00:19:12;102195.94;;;1.02;100.00
50380;BME280;37474;59.468;18.040;2023-02-13T00:21:40;102202.50;;;0.81;100.00
50380;BME280;37474;59.468;18.040;2023-02-13T00:24:11;102172.59;;;0.70;100.00
50380;BME280;37474;59.468;18.040;2023-02-13T00:26:41;102198.25;;;0.83;100.00
50380;BME280;37474;59.468;18.040;2023-02-13T00:29:09;102200.00;;;0.84;100.00
50380;BME280;37474;59.468;18.040;2023-02-13T00:31:37;102185.69;;;0.98;100.00
50380;BME280;37474;59.468;18.040;2023-02-13T00:34:07;102163.91;;;0.56;100.00
50380;BME280;37474;59.468;18.040;2023-02-13T00:36:34;102188.09;;;0.87;100.00
50380;BME280;37474;59.468;18.040;2023-02-13T00:39:04;102181.88;;;0.64;100.00
50380;BME280;37474;59.468;18.040;2023-02-13T00:41:35;102176.91;;;0.76;100.00
50380;BME280;37474;59.468;18.040;2023-02-13T00:44:03;102175.84;;;0.59;100.00
50380;BME280;37474;59.468;18.040;2023-02-13T00:46:33;102182.59;;;0.55;100.00
50380;BME280;37474;59.468;18.040;2023-02-13T00:49:04;102177.69;;;0.69;100.00
50380;BME280;37474;59.468;18.040;2023-02-13T00:51:32;102181.66;;;0.50;100.00
50380;BME280;37474;59.468;18.040;2023-02-13T00:54:01;102173.00;;;0.37;100.00
50380;BME280;37474;59.468;18.040;2023-02-13T00:56:35;102173.66;;;0.22;100.00
50380;BME280;37474;59.468;18.040;2023-02-13T00:59:06;102166.00;;;0.22;100.00
50380;BME280;37474;59.468;18.040;2023-02-13T01:01:38;102164.41;;;0.29;100.00
50380;BME280;37474;59.468;18.040;2023-02-13T01:04:06;102164.09;;;0.08;100.00
50380;BME280;37474;59.468;18.040;2023-02-13T01:06:34;102150.16;;;-0.14;100.00
50380;BME280;37474;59.468;18.040;2023-02-13T01:09:05;102171.63;;;0.00;100.00
50380;BME280;37474;59.468;18.040;2023-02-13T01:11:37;102161.31;;;-0.08;100.00
50380;BME280;37474;59.468;18.040;2023-02-13T01:14:07;102153.47;;;-0.21;100.00
50380;BME280;37474;59.468;18.040;2023-02-13T01:16:34;102159.28;;;-0.29;100.00
50380;BME280;37474;59.468;18.040;2023-02-13T01:19:04;102166.97;;;-0.25;100.00
50380;BME280;37474;59.468;18.040;2023-02-13T01:21:34;102121.44;;;-0.57;100.00
50380;BME280;37474;59.468;18.040;2023-02-13T01:24:03;102161.88;;;-0.25;100.00
50380;BME280;37474;59.468;18.040;2023-02-13T01:26:33;102153.41;;;-0.24;100.00
50380;BME280;37474;59.468;18.040;2023-02-13T01:29:04;102142.53;;;-0.14;100.00
50380;BME280;37474;59.468;18.040;2023-02-13T01:31:32;102153.25;;;-0.34;100.00
50380;BME280;37474;59.468;18.040;2023-02-13T01:34:02;102148.53;;;-0.11;100.00
50380;BME280;37474;59.468;18.040;2023-02-13T01:36:32;102140.06;;;-0.07;100.00
50380;BME280;37474;59.468;18.040;2023-02-13T01:39:00;102141.75;;;-0.10;100.00
50380;BME280;37474;59.468;18.040;2023-02-13T01:41:30;102139.09;;;-0.16;100.00
50380;BME280;37474;59.468;18.040;2023-02-13T01:44:00;102136.50;;;-0.19;100.00
50380;BME280;37474;59.468;18.040;2023-02-13T01:46:34;102144.13;;;-0.21;100.00
50380;BME280;37474;59.468;18.040;2023-02-13T01:49:11;102155.50;;;0.01;100.00
50380;BME280;37474;59.468;18.040;2023-02-13T01:51:42;102155.78;;;0.21;100.00
50380;BME280;37474;59.468;18.040;2023-02-13T01:54:15;102158.31;;;0.19;100.00
50380;BME280;37474;59.468;18.040;2023-02-13T01:56:49;102150.34;;;-0.02;100.00
50380;BME280;37474;59.468;18.040;2023-02-13T01:59:26;102164.72;;;-0.07;100.00
50380;BME280;37474;59.468;18.040;2023-02-13T02:01:59;102162.81;;;-0.20;100.00
50380;BME280;37474;59.468;18.040;2023-02-13T02:04:31;102150.94;;;0.39;100.00
50380;BME280;37474;59.468;18.040;2023-02-13T02:07:02;102155.66;;;0.13;100.00
50380;BME280;37474;59.468;18.040;2023-02-13T02:09:37;102146.47;;;0.24;100.00
50380;BME280;37474;59.468;18.040;2023-02-13T02:12:11;102141.28;;;0.18;100.00
50380;BME280;37474;59.468;18.040;2023-02-13T02:14:45;102125.16;;;0.19;100.00
50380;BME280;37474;59.468;18.040;2023-02-13T02:17:15;102142.59;;;0.51;100.00
50380;BME280;37474;59.468;18.040;2023-02-13T02:19:49;102115.94;;;0.31;100.00
50380;BME280;37474;59.468;18.040;2023-02-13T02:22:45;102135.50;;;0.29;100.00
50380;BME280;37474;59.468;18.040;2023-02-13T02:25:37;102138.19;;;0.41;100.00
50380;BME280;37474;59.468;18.040;2023-02-13T02:28:48;102132.47;;;0.59;100.00
50380;BME280;37474;59.468;18.040;2023-02-13T02:31:42;102133.28;;;0.56;100.00
50380;BME280;37474;59.468;18.040;2023-02-13T02:34:22;102132.53;;;0.65;100.00
50380;BME280;37474;59.468;18.040;2023-02-13T02:37:12;102132.53;;;0.63;100.00
50380;BME280;37474;59.468;18.040;2023-02-13T02:39:56;102137.09;;;0.90;100.00
50380;BME280;37474;59.468;18.040;2023-02-13T02:42:37;102137.63;;;0.66;100.00
50380;BME280;37474;59.468;18.040;2023-02-13T02:45:20;102138.78;;;0.90;100.00
50380;BME280;37474;59.468;18.040;2023-02-13T02:47:58;102148.75;;;0.71;100.00
50380;BME280;37474;59.468;18.040;2023-02-13T02:50:51;102139.78;;;1.04;100.00
50380;BME280;37474;59.468;18.040;2023-02-13T02:53:28;102133.63;;;0.84;100.00
50380;BME280;37474;59.468;18.040;2023-02-13T02:56:04;102141.22;;;0.79;100.00
50380;BME280;37474;59.468;18.040;2023-02-13T02:58:38;102135.13;;;0.69;100.00
50380;BME280;37474;59.468;18.040;2023-02-13T03:01:29;102147.97;;;0.75;100.00
50380;BME280;37474;59.468;18.040;2023-02-13T03:04:22;102145.63;;;0.94;100.00
50380;BME280;37474;59.468;18.040;2023-02-13T03:07:15;102117.50;;;0.91;100.00
50380;BME280;37474;59.468;18.040;2023-02-13T03:09:46;102151.44;;;0.81;100.00
50380;BME280;37474;59.468;18.040;2023-02-13T03:12:37;102146.44;;;0.91;100.00
50380;BME280;37474;59.468;18.040;2023-02-13T03:15:24;102135.41;;;0.94;100.00
50380;BME280;37474;59.468;18.040;2023-02-13T03:18:00;102137.16;;;0.99;100.00
50380;BME280;37474;59.468;18.040;2023-02-13T03:20:49;102124.19;;;0.79;100.00
50380;BME280;37474;59.468;18.040;2023-02-13T03:23:46;102124.31;;;0.90;100.00
50380;BME280;37474;59.468;18.040;2023-02-13T03:26:33;102127.59;;;0.80;100.00
50380;BME280;37474;59.468;18.040;2023-02-13T03:29:28;102108.16;;;0.91;100.00
50380;BME280;37474;59.468;18.040;2023-02-13T03:32:20;102127.16;;;1.19;100.00
50380;BME280;37474;59.468;18.040;2023-02-13T03:35:03;102133.81;;;1.02;100.00
50380;BME280;37474;59.468;18.040;2023-02-13T03:37:57;102131.38;;;1.16;100.00
50380;BME280;37474;59.468;18.040;2023-02-13T03:40:37;102137.19;;;1.01;100.00
50380;BME280;37474;59.468;18.040;2023-02-13T03:43:31;102129.31;;;0.83;100.00
50380;BME280;37474;59.468;18.040;2023-02-13T03:46:04;102125.66;;;0.58;100.00
50380;BME280;37474;59.468;18.040;2023-02-13T03:48:36;102112.34;;;0.88;100.00
50380;BME280;37474;59.468;18.040;2023-02-13T03:51:29;102114.19;;;0.99;100.00
50380;BME280;37474;59.468;18.040;2023-02-13T03:54:03;102090.00;;;0.65;100.00
50380;BME280;37474;59.468;18.040;2023-02-13T03:56:39;102113.06;;;0.74;100.00
50380;BME280;37474;59.468;18.040;2023-02-13T03:59:28;102113.81;;;0.64;100.00
50380;BME280;37474;59.468;18.040;2023-02-13T04:02:07;102109.63;;;0.69;100.00
50380;BME280;37474;59.468;18.040;2023-02-13T04:04:44;102102.03;;;0.75;100.00
50380;BME280;37474;59.468;18.040;2023-02-13T04:07:17;102093.44;;;0.69;100.00
50380;BME280;37474;59.468;18.040;2023-02-13T04:09:59;102072.78;;;0.47;100.00
50380;BME280;37474;59.468;18.040;2023-02-13T04:12:37;102105.59;;;0.90;100.00
50380;BME280;37474;59.468;18.040;2023-02-13T04:15:10;102075.75;;;0.86;100.00
50380;BME280;37474;59.468;18.040;2023-02-13T04:17:47;102080.97;;;0.98;100.00
50380;BME280;37474;59.468;18.040;2023-02-13T04:20:17;102098.03;;;1.00;100.00
50380;BME280;37474;59.468;18.040;2023-02-13T04:22:49;102099.69;;;0.95;100.00
50380;BME280;37474;59.468;18.040;2023-02-13T04:25:19;102097.84;;;0.82;100.00
50380;BME280;37474;59.468;18.040;2023-02-13T04:27:47;102096.28;;;0.95;100.00
50380;BME280;37474;59.468;18.040;2023-02-13T04:30:19;102103.09;;;0.96;100.00
50380;BME280;37474;59.468;18.040;2023-02-13T04:32:47;102100.75;;;1.19;100.00
50380;BME280;37474;59.468;18.040;2023-02-13T04:35:15;102105.13;;;1.30;100.00
50380;BME280;37474;59.468;18.040;2023-02-13T04:37:47;102104.06;;;1.09;100.00
50380;BME280;37474;59.468;18.040;2023-02-13T04:40:15;102108.44;;;1.20;100.00
50380;BME280;37474;59.468;18.040;2023-02-13T04:42:46;102123.59;;;1.02;100.00
50380;BME280;37474;59.468;18.040;2023-02-13T04:45:17;102117.94;;;1.35;100.00
50380;BME280;37474;59.468;18.040;2023-02-13T04:47:49;102112.03;;;1.42;100.00
50380;BME280;37474;59.468;18.040;2023-02-13T04:50:17;102112.78;;;1.32;100.00
50380;BME280;37474;59.468;18.040;2023-02-13T04:52:51;102116.34;;;1.48;100.00
50380;BME280;37474;59.468;18.040;2023-02-13T04:55:21;102120.28;;;1.14;100.00
50380;BME280;37474;59.468;18.040;2023-02-13T04:57:52;102125.59;;;1.37;100.00
50380;BME280;37474;59.468;18.040;2023-02-13T05:00:21;102115.34;;;1.30;100.00
50380;BME280;37474;59.468;18.040;2023-02-13T05:02:59;102117.84;;;1.26;100.00
50380;BME280;37474;59.468;18.040;2023-02-13T05:05:27;102117.84;;;1.26;100.00
50380;BME280;37474;59.468;18.040;2023-02-13T05:07:59;102122.97;;;1.27;100.00
50380;BME280;37474;59.468;18.040;2023-02-13T05:10:27;102122.28;;;1.45;100.00
50380;BME280;37474;59.468;18.040;2023-02-13T05:12:56;102110.97;;;1.19;100.00
50380;BME280;37474;59.468;18.040;2023-02-13T05:15:28;102110.03;;;1.08;100.00
50380;BME280;37474;59.468;18.040;2023-02-13T05:17:56;102116.63;;;0.87;100.00
50380;BME280;37474;59.468;18.040;2023-02-13T05:20:24;102113.31;;;0.96;100.00
50380;BME280;37474;59.468;18.040;2023-02-13T05:22:56;102109.84;;;0.89;100.00
50380;BME280;37474;59.468;18.040;2023-02-13T05:25:41;102127.56;;;0.77;100.00
50380;BME280;37474;59.468;18.040;2023-02-13T05:28:14;102115.56;;;0.68;100.00
50380;BME280;37474;59.468;18.040;2023-02-13T05:31:00;102094.69;;;0.32;100.00
50380;BME280;37474;59.468;18.040;2023-02-13T05:33:32;102134.28;;;0.70;100.00
50380;BME280;37474;59.468;18.040;2023-02-13T05:36:02;102138.56;;;0.71;100.00
50380;BME280;37474;59.468;18.040;2023-02-13T05:38:30;102137.78;;;0.77;100.00
50380;BME280;37474;59.468;18.040;2023-02-13T05:41:00;102143.72;;;0.74;100.00
50380;BME280;37474;59.468;18.040;2023-02-13T05:43:31;102150.31;;;0.59;100.00
50380;BME280;37474;59.468;18.040;2023-02-13T05:46:03;102153.78;;;0.62;100.00
50380;BME280;37474;59.468;18.040;2023-02-13T05:48:35;102139.53;;;0.79;100.00
50380;BME280;37474;59.468;18.040;2023-02-13T05:51:05;102160.72;;;0.72;100.00
50380;BME280;37474;59.468;18.040;2023-02-13T05:53:33;102154.75;;;0.73;100.00
50380;BME280;37474;59.468;18.040;2023-02-13T05:56:04;102163.34;;;0.82;100.00
50380;BME280;37474;59.468;18.040;2023-02-13T05:58:35;102141.16;;;0.76;100.00
50380;BME280;37474;59.468;18.040;2023-02-13T06:01:03;102163.59;;;1.01;100.00
50380;BME280;37474;59.468;18.040;2023-02-13T06:03:33;102167.78;;;0.95;100.00
50380;BME280;37474;59.468;18.040;2023-02-13T06:06:05;102170.41;;;1.01;100.00
50380;BME280;37474;59.468;18.040;2023-02-13T06:08:33;102185.69;;;0.99;100.00
50380;BME280;37474;59.468;18.040;2023-02-13T06:11:01;102150.75;;;0.95;100.00
50380;BME280;37474;59.468;18.040;2023-02-13T06:13:31;102202.75;;;1.02;100.00
50380;BME280;37474;59.468;18.040;2023-02-13T06:16:01;102194.03;;;0.85;100.00
50380;BME280;37474;59.468;18.040;2023-02-13T06:18:30;102205.44;;;1.14;100.00
50380;BME280;37474;59.468;18.040;2023-02-13T06:21:00;102209.50;;;0.98;100.00
50380;BME280;37474;59.468;18.040;2023-02-13T06:23:29;102215.47;;;0.99;100.00
50380;BME280;37474;59.468;18.040;2023-02-13T06:26:01;102173.22;;;0.54;100.00
50380;BME280;37474;59.468;18.040;2023-02-13T06:28:31;102183.34;;;0.48;100.00
50380;BME280;37474;59.468;18.040;2023-02-13T06:31:01;102210.66;;;0.55;100.00
50380;BME280;37474;59.468;18.040;2023-02-13T06:33:31;102203.00;;;0.53;100.00
50380;BME280;37474;59.468;18.040;2023-02-13T06:36:01;102193.75;;;0.62;100.00
50380;BME280;37474;59.468;18.040;2023-02-13T06:38:28;102208.53;;;0.89;100.00
50380;BME280;37474;59.468;18.040;2023-02-13T06:40:59;102208.44;;;0.78;100.00
50380;BME280;37474;59.468;18.040;2023-02-13T06:43:30;102210.34;;;0.96;100.00
50380;BME280;37474;59.468;18.040;2023-02-13T06:45:57;102195.97;;;1.04;100.00
50380;BME280;37474;59.468;18.040;2023-02-13T06:48:28;102199.00;;;0.74;100.00
50380;BME280;37474;59.468;18.040;2023-02-13T06:50:58;102198.09;;;0.70;100.00
50380;BME280;37474;59.468;18.040;2023-02-13T06:53:29;102191.56;;;0.91;100.00
50380;BME280;37474;59.468;18.040;2023-02-13T06:56:02;102205.69;;;0.64;100.00
50380;BME280;37474;59.468;18.040;2023-02-13T06:58:33;102187.88;;;0.67;100.00
50380;BME280;37474;59.468;18.040;2023-02-13T07:01:03;102197.19;;;0.64;100.00
50380;BME280;37474;59.468;18.040;2023-02-13T07:03:32;102201.28;;;0.54;100.00
50380;BME280;37474;59.468;18.040;2023-02-13T07:06:02;102211.53;;;0.56;100.00
50380;BME280;37474;59.468;18.040;2023-02-13T07:08:32;102205.81;;;0.75;100.00
50380;BME280;37474;59.468;18.040;2023-02-13T07:11:00;102212.72;;;0.82;100.00
50380;BME280;37474;59.468;18.040;2023-02-13T07:13:27;102218.59;;;0.76;100.00
50380;BME280;37474;59.468;18.040;2023-02-13T07:15:59;102216.19;;;0.86;100.00
50380;BME280;37474;59.468;18.040;2023-02-13T07:18:27;102201.50;;;0.69;100.00
50380;BME280;37474;59.468;18.040;2023-02-13T07:20:58;102184.41;;;0.64;100.00
50380;BME280;37474;59.468;18.040;2023-02-13T07:23:28;102174.28;;;0.68;100.00
50380;BME280;37474;59.468;18.040;2023-02-13T07:25:57;102181.88;;;0.65;100.00
50380;BME280;37474;59.468;18.040;2023-02-13T07:28:28;102181.34;;;0.91;100.00
50380;BME280;37474;59.468;18.040;2023-02-13T07:31:03;102170.94;;;0.75;100.00
50380;BME280;37474;59.468;18.040;2023-02-13T07:33:34;102177.03;;;0.85;100.00
50380;BME280;37474;59.468;18.040;2023-02-13T07:36:06;102179.06;;;1.15;100.00
50380;BME280;37474;59.468;18.040;2023-02-13T07:38:34;102186.78;;;1.21;100.00
50380;BME280;37474;59.468;18.040;2023-02-13T07:41:04;102190.34;;;1.36;100.00
50380;BME280;37474;59.468;18.040;2023-02-13T07:43:34;102195.41;;;1.32;100.00
50380;BME280;37474;59.468;18.040;2023-02-13T07:46:03;102176.66;;;1.29;100.00
50380;BME280;37474;59.468;18.040;2023-02-13T07:48:33;102198.13;;;1.49;100.00
50380;BME280;37474;59.468;18.040;2023-02-13T07:51:04;102194.66;;;1.41;100.00
50380;BME280;37474;59.468;18.040;2023-02-13T07:53:36;102195.56;;;1.48;100.00
50380;BME280;37474;59.468;18.040;2023-02-13T07:56:05;102196.53;;;1.61;100.00
50380;BME280;37474;59.468;18.040;2023-02-13T07:58:33;102199.13;;;1.62;100.00
50380;BME280;37474;59.468;18.040;2023-02-13T08:01:05;102206.00;;;1.71;100.00
50380;BME280;37474;59.468;18.040;2023-02-13T08:03:34;102186.34;;;1.62;100.00
50380;BME280;37474;59.468;18.040;2023-02-13T08:06:03;102212.91;;;1.79;100.00
50380;BME280;37474;59.468;18.040;2023-02-13T08:08:35;102214.72;;;1.94;100.00
50380;BME280;37474;59.468;18.040;2023-02-13T08:11:07;102211.28;;;1.94;100.00
50380;BME280;37474;59.468;18.040;2023-02-13T08:13:59;102226.75;;;2.06;100.00
50380;BME280;37474;59.468;18.040;2023-02-13T08:16:28;102230.03;;;1.90;100.00
50380;BME280;37474;59.468;18.040;2023-02-13T08:18:56;102226.72;;;2.04;100.00
50380;BME280;37474;59.468;18.040;2023-02-13T08:21:26;102229.31;;;2.06;100.00
50380;BME280;37474;59.468;18.040;2023-02-13T08:23:55;102249.06;;;2.22;100.00
50380;BME280;37474;59.468;18.040;2023-02-13T08:26:23;102247.34;;;2.26;100.00
50380;BME280;37474;59.468;18.040;2023-02-13T08:28:51;102228.56;;;2.19;100.00
50380;BME280;37474;59.468;18.040;2023-02-13T08:31:19;102246.53;;;2.31;100.00
50380;BME280;37474;59.468;18.040;2023-02-13T08:33:47;102255.16;;;2.40;100.00
50380;BME280;37474;59.468;18.040;2023-02-13T08:36:15;102251.84;;;2.56;100.00
50380;BME280;37474;59.468;18.040;2023-02-13T08:38:45;102270.63;;;2.59;100.00
50380;BME280;37474;59.468;18.040;2023-02-13T08:41:14;102276.63;;;2.61;100.00
50380;BME280;37474;59.468;18.040;2023-02-13T08:43:43;102281.81;;;2.75;100.00
50380;BME280;37474;59.468;18.040;2023-02-13T08:46:11;102280.16;;;2.83;99.78
50380;BME280;37474;59.468;18.040;2023-02-13T08:48:39;102270.78;;;2.87;98.62
50380;BME280;37474;59.468;18.040;2023-02-13T08:51:07;102273.34;;;2.93;98.81
50380;BME280;37474;59.468;18.040;2023-02-13T08:53:35;102277.69;;;3.00;98.57
50380;BME280;37474;59.468;18.040;2023-02-13T08:56:04;102280.31;;;3.17;97.08
50380;BME280;37474;59.468;18.040;2023-02-13T08:58:34;102282.91;;;3.26;95.95
50380;BME280;37474;59.468;18.040;2023-02-13T09:01:04;102272.59;;;3.15;95.45
50380;BME280;37474;59.468;18.040;2023-02-13T09:03:32;102277.78;;;3.25;95.81
50380;BME280;37474;59.468;18.040;2023-02-13T09:06:00;102281.19;;;3.33;95.08
50380;BME280;37474;59.468;18.040;2023-02-13T09:08:28;102281.25;;;3.40;94.23
50380;BME280;37474;59.468;18.040;2023-02-13T09:10:59;102288.94;;;3.43;93.61
50380;BME280;37474;59.468;18.040;2023-02-13T09:13:28;102284.72;;;3.56;92.87
50380;BME280;37474;59.468;18.040;2023-02-13T09:16:03;102282.13;;;3.50;93.04
50380;BME280;37474;59.468;18.040;2023-02-13T09:18:32;102262.47;;;3.51;92.16
50380;BME280;37474;59.468;18.040;2023-02-13T09:21:02;102281.31;;;3.63;92.02
50380;BME280;37474;59.468;18.040;2023-02-13T09:23:34;102271.06;;;3.73;91.87
50380;BME280;37474;59.468;18.040;2023-02-13T09:26:04;102270.25;;;4.06;90.31
50380;BME280;37474;59.468;18.040;2023-02-13T09:28:34;102273.63;;;4.11;88.61
50380;BME280;37474;59.468;18.040;2023-02-13T09:31:05;102280.47;;;4.36;87.38
50380;BME280;37474;59.468;18.040;2023-02-13T09:33:34;102266.75;;;4.68;85.36
50380;BME280;37474;59.468;18.040;2023-02-13T09:36:03;102264.19;;;4.62;84.37
50380;BME280;37474;59.468;18.040;2023-02-13T09:38:32;102265.09;;;4.39;85.60
50380;BME280;37474;59.468;18.040;2023-02-13T09:41:06;102271.06;;;4.37;86.15
50380;BME280;37474;59.468;18.040;2023-02-13T09:43:40;102267.63;;;4.56;85.27
50380;BME280;37474;59.468;18.040;2023-02-13T09:46:18;102262.53;;;4.30;85.90
50380;BME280;37474;59.468;18.040;2023-02-13T09:48:49;102263.38;;;4.34;86.15
50380;BME280;37474;59.468;18.040;2023-02-13T09:51:23;102247.97;;;4.20;85.82
50380;BME280;37474;59.468;18.040;2023-02-13T09:53:53;102281.31;;;4.47;85.03
50380;BME280;37474;59.468;18.040;2023-02-13T09:56:36;102273.59;;;4.55;85.12
50380;BME280;37474;59.468;18.040;2023-02-13T09:59:30;102269.31;;;4.69;83.43
50380;BME280;37474;59.468;18.040;2023-02-13T10:02:20;102274.47;;;4.59;84.42
50380;BME280;37474;59.468;18.040;2023-02-13T10:04:57;102275.28;;;4.65;83.53
50380;BME280;37474;59.468;18.040;2023-02-13T10:07:36;102282.97;;;4.81;83.21
50380;BME280;37474;59.468;18.040;2023-02-13T10:10:13;102287.25;;;4.82;83.40
50380;BME280;37474;59.468;18.040;2023-02-13T10:12:55;102289.81;;;4.82;83.53
50380;BME280;37474;59.468;18.040;2023-02-13T10:15:30;102287.19;;;5.08;81.68
50380;BME280;37474;59.468;18.040;2023-02-13T10:18:09;102294.09;;;4.84;81.95
50380;BME280;37474;59.468;18.040;2023-02-13T10:20:42;102301.00;;;4.68;82.81
50380;BME280;37474;59.468;18.040;2023-02-13T10:23:19;102293.25;;;4.81;82.73
50380;BME280;37474;59.468;18.040;2023-02-13T10:25:51;102294.91;;;4.94;81.53
50380;BME280;37474;59.468;18.040;2023-02-13T10:28:28;102301.84;;;4.73;82.45
50380;BME280;37474;59.468;18.040;2023-02-13T10:31:02;102298.34;;;4.93;81.70
50380;BME280;37474;59.468;18.040;2023-02-13T10:33:39;102302.59;;;5.04;80.99
50380;BME280;37474;59.468;18.040;2023-02-13T10:36:15;102292.31;;;5.04;80.72
50380;BME280;37474;59.468;18.040;2023-02-13T10:38:55;102300.00;;;5.17;80.07
50380;BME280;37474;59.468;18.040;2023-02-13T10:41:27;102307.72;;;5.04;80.43
50380;BME280;37474;59.468;18.040;2023-02-13T10:44:09;102306.06;;;4.93;80.39
50380;BME280;37474;59.468;18.040;2023-02-13T10:46:47;102313.78;;;4.93;80.51
50380;BME280;37474;59.468;18.040;2023-02-13T10:49:35;102309.50;;;4.96;81.07
50380;BME280;37474;59.468;18.040;2023-02-13T10:52:17;102305.19;;;4.97;80.79
50380;BME280;37474;59.468;18.040;2023-02-13T10:55:13;102312.91;;;4.98;80.05
50380;BME280;37474;59.468;18.040;2023-02-13T10:57:59;102323.97;;;5.23;79.55
50380;BME280;37474;59.468;18.040;2023-02-13T11:00:35;102313.72;;;5.13;79.85
50380;BME280;37474;59.468;18.040;2023-02-13T11:03:04;102320.56;;;5.09;79.66
50380;BME280;37474;59.468;18.040;2023-02-13T11:05:43;102316.28;;;5.10;78.98
50380;BME280;37474;59.468;18.040;2023-02-13T11:08:17;102313.69;;;5.16;78.99
50380;BME280;37474;59.468;18.040;2023-02-13T11:10:49;102320.50;;;5.34;78.93
50380;BME280;37474;59.468;18.040;2023-02-13T11:13:17;102325.72;;;5.17;79.18
50380;BME280;37474;59.468;18.040;2023-02-13T11:16:01;102327.44;;;5.12;79.41
50380;BME280;37474;59.468;18.040;2023-02-13T11:18:34;102331.69;;;5.16;79.47
50380;BME280;37474;59.468;18.040;2023-02-13T11:21:09;102332.53;;;5.21;79.87
50380;BME280;37474;59.468;18.040;2023-02-13T11:23:42;102326.50;;;5.31;78.84
50380;BME280;37474;59.468;18.040;2023-02-13T11:26:14;102333.38;;;5.29;78.56
50380;BME280;37474;59.468;18.040;2023-02-13T11:28:53;102332.53;;;5.21;78.99
50380;BME280;37474;59.468;18.040;2023-02-13T11:31:26;102335.13;;;5.22;79.44
50380;BME280;37474;59.468;18.040;2023-02-13T11:33:55;102330.81;;;5.27;77.95
50380;BME280;37474;59.468;18.040;2023-02-13T11:36:28;102331.66;;;5.26;78.07
50380;BME280;37474;59.468;18.040;2023-02-13T11:38:59;102335.91;;;5.35;77.80
50380;BME280;37474;59.468;18.040;2023-02-13T11:41:28;102336.81;;;5.28;78.12
50380;BME280;37474;59.468;18.040;2023-02-13T11:43:58;102345.41;;;5.22;78.38
50380;BME280;37474;59.468;18.040;2023-02-13T11:46:42;102341.94;;;5.31;78.33
50380;BME280;37474;59.468;18.040;2023-02-13T11:49:16;102341.88;;;5.46;77.95
50380;BME280;37474;59.468;18.040;2023-02-13T11:51:50;102342.72;;;5.50;77.01
50380;BME280;37474;59.468;18.040;2023-02-13T11:54:31;102352.09;;;5.62;76.84
50380;BME280;37474;59.468;18.040;2023-02-13T11:57:02;102358.16;;;5.50;76.07
50380;BME280;37474;59.468;18.040;2023-02-13T11:59:37;102367.50;;;5.68;75.93
50380;BME280;37474;59.468;18.040;2023-02-13T12:02:13;102365.03;;;5.43;76.51
50380;BME280;37474;59.468;18.040;2023-02-13T12:04:42;102365.75;;;5.77;75.97
50380;BME280;37474;59.468;18.040;2023-02-13T12:07:16;102363.28;;;5.56;76.42
50380;BME280;37474;59.468;18.040;2023-02-13T12:09:47;102373.59;;;5.50;76.37
50380;BME280;37474;59.468;18.040;2023-02-13T12:12:26;102364.13;;;5.61;76.21
50380;BME280;37474;59.468;18.040;2023-02-13T12:14:56;102370.06;;;5.65;76.38
50380;BME280;37474;59.468;18.040;2023-02-13T12:17:29;102365.88;;;5.42;77.25
50380;BME280;37474;59.468;18.040;2023-02-13T12:19:58;102376.91;;;5.70;76.33
50380;BME280;37474;59.468;18.040;2023-02-13T12:22:38;102358.19;;;5.36;77.15
50380;BME280;37474;59.468;18.040;2023-02-13T12:25:18;102361.59;;;5.43;77.44
50380;BME280;37474;59.468;18.040;2023-02-13T12:28:02;102373.53;;;5.59;76.31
50380;BME280;37474;59.468;18.040;2023-02-13T12:30:58;102382.09;;;5.64;75.96
50380;BME280;37474;59.468;18.040;2023-02-13T12:36:35;102393.16;;;5.83;75.19
50380;BME280;37474;59.468;18.040;2023-02-13T12:39:16;102391.41;;;5.93;74.57
50380;BME280;37474;59.468;18.040;2023-02-13T12:41:52;102385.34;;;6.03;72.96
50380;BME280;37474;59.468;18.040;2023-02-13T12:44:47;102391.41;;;5.88;73.70
50380;BME280;37474;59.468;18.040;2023-02-13T12:47:19;102391.41;;;5.96;73.13
50380;BME280;37474;59.468;18.040;2023-02-13T12:50:27;102391.38;;;5.99;73.49
50380;BME280;37474;59.468;18.040;2023-02-13T12:53:07;102396.50;;;6.06;72.22
50380;BME280;37474;59.468;18.040;2023-02-13T12:55:55;102405.09;;;6.01;72.30
50380;BME280;37474;59.468;18.040;2023-02-13T12:58:44;102395.66;;;6.01;73.06
50380;BME280;37474;59.468;18.040;2023-02-13T13:01:25;102399.94;;;6.05;72.94
50380;BME280;37474;59.468;18.040;2023-02-13T13:04:06;102408.53;;;5.98;72.70
50380;BME280;37474;59.468;18.040;2023-02-13T13:06:48;102415.44;;;5.90;72.84
50380;BME280;37474;59.468;18.040;2023-02-13T13:09:41;102417.19;;;5.79;73.08
50380;BME280;37474;59.468;18.040;2023-02-13T13:12:27;102413.78;;;5.74;73.61
50380;BME280;37474;59.468;18.040;2023-02-13T13:15:01;102412.94;;;5.70;73.40
50380;BME280;37474;59.468;18.040;2023-02-13T13:17:42;102414.59;;;5.80;73.50
50380;BME280;37474;59.468;18.040;2023-02-13T13:20:39;102411.22;;;5.71;73.62
50380;BME280;37474;59.468;18.040;2023-02-13T13:23:17;102404.38;;;5.61;74.32